createdAt,value
2022-10-03T00:02:45.418Z,16.47
2022-10-03T00:08:19.416Z,16.91
2022-10-03T00:13:33.189Z,17.04
2022-10-03T00:18:47.727Z,15.73
2022-10-03T00:24:22.595Z,16.27
2022-10-03T00:29:40.144Z,16.67
2022-10-03T00:35:01.430Z,16.53
2022-10-03T00:40:28.574Z,16.81
2022-10-03T00:45:46.030Z,16.92
2022-10-03T00:50:54.874Z,16.43
2022-10-03T00:56:23.589Z,16.22
2022-10-03T01:01:37.332Z,16.49
2022-10-03T01:07:11.281Z,16.70
2022-10-03T01:12:47.440Z,16.82
2022-10-03T01:18:29.254Z,16.83
2022-10-03T01:24:09.846Z,16.53
2022-10-03T01:29:39.141Z,16.77
2022-10-03T01:34:54.384Z,17.43
2022-10-03T01:40:12.418Z,17.30
2022-10-03T01:45:29.655Z,16.12
2022-10-03T01:50:44.334Z,16.78
2022-10-03T01:56:10.940Z,17.05
2022-10-03T02:01:37.438Z,16.90
2022-10-03T02:07:05.783Z,17.16
2022-10-03T02:12:10.498Z,17.30
2022-10-03T02:17:52.526Z,17.31
2022-10-03T02:22:59.942Z,17.32
2022-10-03T02:28:33.457Z,17.41
2022-10-03T02:34:00.316Z,17.24
2022-10-03T02:39:20.909Z,17.49
2022-10-03T02:45:09.919Z,17.45
2022-10-03T02:50:49.685Z,17.47
2022-10-03T02:56:14.196Z,16.45
2022-10-03T03:01:38.386Z,17.36
2022-10-03T03:07:05.295Z,17.15
2022-10-03T03:12:10.943Z,17.72
2022-10-03T03:17:25.609Z,17.61
2022-10-03T03:22:50.541Z,17.50
2022-10-03T03:28:38.053Z,17.41
2022-10-03T03:33:51.230Z,17.57
2022-10-03T03:39:21.918Z,17.87
2022-10-03T03:44:54.402Z,17.53
2022-10-03T03:50:33.578Z,17.18
2022-10-03T03:55:48.829Z,17.53
2022-10-03T04:01:17.372Z,17.45
2022-10-03T04:06:46.303Z,17.38
2022-10-03T04:11:51.947Z,17.16
2022-10-03T04:17:32.177Z,17.21
2022-10-03T04:22:35.199Z,17.07
2022-10-03T04:28:07.982Z,17.27
2022-10-03T04:33:26.296Z,17.31
2022-10-03T04:39:16.579Z,17.35
2022-10-03T04:44:47.364Z,18.01
2022-10-03T04:50:13.288Z,16.64
2022-10-03T04:55:35.538Z,17.94
2022-10-03T05:01:01.409Z,17.23
2022-10-03T05:06:26.837Z,17.47
2022-10-03T05:11:39.673Z,17.50
2022-10-03T05:17:03.599Z,17.88
2022-10-03T05:22:12.690Z,17.73
2022-10-03T05:27:23.094Z,18.24
2022-10-03T05:32:42.945Z,16.72
2022-10-03T05:38:19.398Z,17.54
2022-10-03T05:43:40.208Z,17.76
2022-10-03T05:48:54.163Z,17.57
2022-10-03T05:54:22.430Z,18.26
2022-10-03T06:00:09.325Z,18.28
2022-10-03T06:05:31.696Z,18.16
2022-10-03T06:10:52.408Z,18.54
2022-10-03T06:16:11.242Z,17.88
2022-10-03T06:21:23.563Z,17.75
2022-10-03T06:26:54.187Z,18.36
2022-10-03T06:32:18.843Z,18.38
2022-10-03T06:37:48.680Z,18.40
2022-10-03T06:43:16.480Z,17.45
2022-10-03T06:48:49.929Z,18.86
2022-10-03T06:54:44.121Z,18.90
2022-10-03T07:06:44.434Z,18.34
2022-10-03T07:18:05.164Z,18.82
2022-10-03T07:36:16.517Z,19.12
2022-10-03T07:48:09.177Z,18.45
2022-10-03T07:53:57.249Z,18.99
2022-10-03T07:59:47.455Z,16.82
2022-10-03T08:05:02.260Z,18.27
2022-10-03T08:10:40.917Z,17.26
2022-10-03T08:16:11.557Z,17.30
2022-10-03T08:21:50.061Z,17.09
2022-10-03T08:26:58.778Z,16.61
2022-10-03T08:32:39.674Z,16.70
2022-10-03T08:38:02.014Z,17.21
2022-10-03T08:43:49.529Z,16.40
2022-10-03T08:56:04.572Z,17.25
2022-10-03T09:07:57.453Z,16.29
2022-10-03T09:13:49.405Z,16.59
2022-10-03T09:26:09.675Z,16.37
2022-10-03T09:32:12.895Z,16.07
2022-10-03T09:37:47.611Z,15.29
2022-10-03T09:43:14.124Z,16.75
2022-10-03T09:48:20.096Z,15.24
2022-10-03T09:53:43.710Z,15.61
2022-10-03T09:59:07.957Z,14.22
2022-10-03T10:04:54.281Z,15.03
2022-10-03T10:10:36.894Z,14.38
2022-10-03T10:16:11.341Z,13.24
2022-10-03T10:21:44.240Z,12.71
2022-10-03T10:27:27.490Z,12.50
2022-10-03T10:32:48.964Z,14.72
2022-10-03T10:38:11.432Z,13.94
2022-10-03T10:43:36.533Z,13.26
2022-10-03T10:49:02.820Z,12.95
2022-10-03T10:54:47.520Z,12.87
2022-10-03T11:00:03.658Z,13.73
2022-10-03T11:05:41.486Z,13.58
2022-10-03T11:11:05.606Z,13.24
2022-10-03T11:16:35.394Z,13.10
2022-10-03T11:21:56.704Z,13.15
2022-10-03T11:27:37.010Z,13.18
2022-10-03T11:33:17.865Z,13.22
2022-10-03T11:38:24.689Z,13.23
2022-10-03T11:43:49.822Z,13.31
2022-10-03T11:49:05.015Z,13.40
2022-10-03T11:54:29.986Z,13.42
2022-10-03T11:59:45.530Z,13.23
2022-10-03T12:04:59.758Z,12.93
2022-10-03T12:10:16.815Z,12.90
2022-10-03T12:15:41.830Z,13.02
2022-10-03T12:21:07.099Z,13.25
2022-10-03T12:26:18.267Z,13.58
2022-10-03T12:31:52.866Z,13.84
2022-10-03T12:37:17.733Z,13.97
2022-10-03T12:42:41.469Z,13.99
2022-10-03T12:47:58.800Z,14.16
2022-10-03T12:53:17.549Z,14.43
2022-10-03T12:58:37.104Z,14.57
2022-10-03T13:03:56.661Z,14.40
2022-10-03T13:09:24.040Z,14.16
2022-10-03T13:14:45.004Z,14.07
2022-10-03T13:20:13.461Z,14.05
2022-10-03T13:25:31.772Z,14.13
2022-10-03T13:31:01.987Z,14.15
2022-10-03T13:36:44.660Z,14.11
2022-10-03T13:42:02.627Z,13.90
2022-10-03T13:47:20.616Z,13.69
2022-10-03T13:52:43.738Z,13.68
2022-10-03T13:57:52.771Z,13.74
2022-10-03T14:03:16.406Z,13.82
2022-10-03T14:08:28.717Z,13.81
2022-10-03T14:13:52.728Z,13.81
2022-10-03T14:19:01.126Z,13.52
2022-10-03T14:24:12.451Z,13.20
2022-10-03T14:29:40.514Z,13.06
2022-10-03T14:35:04.525Z,13.18
2022-10-03T14:40:28.416Z,13.53
2022-10-03T14:45:38.251Z,14.05
2022-10-03T14:50:42.358Z,14.48
2022-10-03T14:56:06.630Z,14.46
2022-10-03T15:01:12.717Z,14.60
2022-10-03T15:06:35.980Z,15.24
2022-10-03T15:11:48.731Z,15.83
2022-10-03T15:16:56.340Z,15.60
2022-10-03T15:22:07.059Z,15.43
2022-10-03T15:27:20.365Z,15.61
2022-10-03T15:32:27.892Z,15.22
2022-10-03T15:37:41.803Z,14.98
2022-10-03T15:43:01.056Z,14.70
2022-10-03T15:48:10.778Z,14.06
2022-10-03T15:53:36.266Z,13.73
2022-10-03T15:58:51.733Z,13.09
2022-10-03T16:04:02.386Z,14.85
2022-10-03T16:09:40.285Z,15.82
2022-10-03T16:14:48.170Z,13.76
2022-10-03T16:20:06.828Z,14.06
2022-10-03T16:25:25.797Z,15.63
2022-10-03T16:30:41.125Z,13.57
2022-10-03T16:35:52.696Z,14.35
2022-10-03T16:41:02.102Z,15.44
2022-10-03T16:46:19.094Z,13.47
2022-10-03T16:51:33.284Z,15.41
2022-10-03T16:56:45.908Z,14.29
2022-10-03T17:02:03.380Z,14.37
2022-10-03T17:07:23.849Z,14.94
2022-10-03T17:12:40.276Z,13.74
2022-10-03T17:17:57.432Z,15.57
2022-10-03T17:23:28.519Z,13.78
2022-10-03T17:28:54.744Z,15.74
2022-10-03T17:34:11.938Z,14.40
2022-10-03T17:39:35.654Z,15.97
2022-10-03T17:45:03.269Z,14.56
2022-10-03T17:50:33.310Z,15.69
2022-10-03T17:55:44.768Z,14.86
2022-10-03T18:01:00.213Z,15.94
2022-10-03T18:06:41.449Z,15.17
2022-10-03T18:11:48.886Z,16.29
2022-10-03T18:17:19.977Z,15.89
2022-10-03T18:22:42.804Z,16.15
2022-10-03T18:27:52.387Z,16.37
2022-10-03T18:32:58.993Z,16.11
2022-10-03T18:38:21.962Z,16.04
2022-10-03T18:43:26.530Z,16.28
2022-10-03T18:49:23.926Z,16.18
2022-10-03T18:54:35.786Z,15.79
2022-10-03T18:59:47.956Z,16.33
2022-10-03T19:04:58.429Z,15.52
2022-10-03T19:10:23.401Z,15.78
2022-10-03T19:15:44.048Z,15.94
2022-10-03T19:20:51.888Z,16.20
2022-10-03T19:26:00.966Z,16.57
2022-10-03T19:31:03.595Z,15.52
2022-10-03T19:36:11.128Z,17.33
2022-10-03T19:41:30.392Z,15.45
2022-10-03T19:47:05.579Z,16.95
2022-10-03T19:52:28.886Z,16.76
2022-10-03T19:57:37.638Z,14.96
2022-10-03T20:02:41.864Z,17.21
2022-10-03T20:07:51.059Z,17.13
2022-10-03T20:12:53.967Z,15.91
2022-10-03T20:18:00.809Z,17.50
2022-10-03T20:23:06.632Z,15.65
2022-10-03T20:28:21.305Z,16.29
2022-10-03T20:33:30.696Z,16.86
2022-10-03T20:38:58.453Z,15.16
2022-10-03T20:44:16.250Z,16.46
2022-10-03T20:49:30.279Z,16.72
2022-10-03T20:54:58.504Z,16.05
2022-10-03T21:00:12.668Z,17.84
2022-10-03T21:05:25.009Z,16.72
2022-10-03T21:10:36.610Z,16.46
2022-10-03T21:15:51.445Z,17.65
2022-10-03T21:21:15.689Z,16.06
2022-10-03T21:26:24.528Z,17.15
2022-10-03T21:31:38.738Z,16.43
2022-10-03T21:36:44.576Z,16.38
2022-10-03T21:42:08.442Z,16.92
2022-10-03T21:47:32.438Z,16.97
2022-10-03T21:52:38.325Z,15.77
2022-10-03T21:58:09.368Z,16.65
2022-10-03T22:03:31.625Z,16.59
2022-10-03T22:08:40.126Z,16.44
2022-10-03T22:13:54.891Z,16.51
2022-10-03T22:19:11.888Z,16.96
2022-10-03T22:24:24.506Z,15.44
2022-10-03T22:29:44.714Z,15.74
2022-10-03T22:34:53.400Z,16.39
2022-10-03T22:40:00.043Z,16.62
2022-10-03T22:45:04.918Z,16.45
2022-10-03T22:50:15.067Z,16.28
2022-10-03T22:55:22.383Z,16.23
2022-10-03T23:00:28.771Z,15.83
2022-10-03T23:05:52.967Z,15.90
2022-10-03T23:11:01.549Z,15.78
2022-10-03T23:16:23.637Z,15.79
2022-10-03T23:21:26.917Z,16.05
2022-10-03T23:26:41.734Z,15.98
2022-10-03T23:31:53.380Z,15.69
2022-10-03T23:37:20.204Z,15.70
2022-10-03T23:42:38.323Z,15.95
2022-10-03T23:47:53.077Z,15.84
2022-10-03T23:52:58.671Z,16.06
2022-10-03T23:58:03.126Z,16.09
